createdAt,value
2018-05-10T00:01:09.769Z,9.60
2018-05-10T00:03:38.287Z,8.87
2018-05-10T00:06:06.788Z,9.20
2018-05-10T00:08:35.284Z,8.60
2018-05-10T00:11:03.824Z,9.43
2018-05-10T00:13:32.328Z,10.30
2018-05-10T00:16:00.895Z,11.07
2018-05-10T00:18:29.376Z,11.03
2018-05-10T00:20:57.885Z,9.80
2018-05-10T00:23:26.393Z,10.17
2018-05-10T00:25:54.853Z,10.33
2018-05-10T00:28:23.379Z,11.50
2018-05-10T00:30:51.847Z,11.10
2018-05-10T00:33:20.376Z,11.00
2018-05-10T00:35:48.904Z,10.27
2018-05-10T00:38:17.365Z,11.40
2018-05-10T00:40:45.860Z,10.43
2018-05-10T00:43:14.368Z,10.67
2018-05-10T00:45:42.864Z,10.20
2018-05-10T00:48:11.350Z,10.47
2018-05-10T00:50:39.852Z,10.63
2018-05-10T00:53:08.372Z,10.30
2018-05-10T00:55:36.834Z,10.67
2018-05-10T00:58:05.367Z,10.50
2018-05-10T01:00:33.878Z,11.40
2018-05-10T01:03:02.385Z,11.10
2018-05-10T01:05:30.914Z,12.00
2018-05-10T01:07:59.422Z,11.97
2018-05-10T01:10:27.929Z,12.20
2018-05-10T01:12:56.405Z,12.13
2018-05-10T01:15:24.893Z,12.87
2018-05-10T01:17:53.436Z,12.30
2018-05-10T01:20:21.897Z,13.40
2018-05-10T01:22:50.400Z,12.87
2018-05-10T01:25:18.888Z,11.73
2018-05-10T01:27:47.456Z,12.93
2018-05-10T01:30:15.932Z,13.73
2018-05-10T01:32:44.397Z,13.73
2018-05-10T01:35:24.596Z,12.90
2018-05-10T01:37:53.048Z,11.43
2018-05-10T01:40:21.512Z,11.43
2018-05-10T01:42:50.056Z,13.00
2018-05-10T01:45:18.529Z,12.70
2018-05-10T01:47:47.006Z,12.47
2018-05-10T01:50:15.500Z,12.57
2018-05-10T01:52:43.981Z,12.17
2018-05-10T01:55:12.493Z,12.50
2018-05-10T01:57:41.009Z,12.80
2018-05-10T02:00:09.480Z,12.80
2018-05-10T02:02:37.973Z,12.63
2018-05-10T02:05:06.449Z,13.13
2018-05-10T02:07:34.944Z,12.37
2018-05-10T02:10:03.498Z,14.00
2018-05-10T02:12:32.037Z,11.73
2018-05-10T02:15:00.540Z,11.10
2018-05-10T02:17:29.075Z,11.07
2018-05-10T02:19:57.603Z,11.67
2018-05-10T02:22:26.065Z,11.03
2018-05-10T02:24:54.568Z,10.90
2018-05-10T02:27:23.035Z,10.83
2018-05-10T02:29:51.551Z,10.27
2018-05-10T02:32:20.073Z,10.47
2018-05-10T02:34:48.571Z,10.23
2018-05-10T02:37:17.095Z,10.70
2018-05-10T02:39:45.624Z,10.50
2018-05-10T02:42:14.106Z,10.67
2018-05-10T02:44:42.622Z,10.60
2018-05-10T02:47:11.145Z,10.67
2018-05-10T02:49:39.610Z,10.73
2018-05-10T02:52:08.104Z,11.33
2018-05-10T02:54:36.612Z,11.10
2018-05-10T02:57:05.124Z,11.70
2018-05-10T02:59:33.644Z,11.40
2018-05-10T03:02:02.084Z,12.37
2018-05-10T03:04:30.583Z,12.43
2018-05-10T03:06:59.113Z,12.30
2018-05-10T03:09:27.627Z,12.37
2018-05-10T03:11:56.118Z,12.17
2018-05-10T03:14:24.629Z,12.87
2018-05-10T03:16:53.136Z,13.17
2018-05-10T03:19:21.650Z,13.77
2018-05-10T03:21:50.181Z,14.10
2018-05-10T03:24:18.696Z,12.50
2018-05-10T03:26:47.205Z,12.77
2018-05-10T03:29:15.664Z,13.13
2018-05-10T03:31:44.161Z,13.10
2018-05-10T03:34:12.623Z,12.90
2018-05-10T03:36:41.147Z,12.23
2018-05-10T03:39:09.649Z,12.10
2018-05-10T03:41:38.190Z,12.07
2018-05-10T03:44:06.656Z,12.07
2018-05-10T03:46:35.107Z,12.37
2018-05-10T03:49:04.537Z,11.93
2018-05-10T03:51:33.012Z,11.83
2018-05-10T03:54:01.545Z,11.83
2018-05-10T03:56:30.027Z,11.80
2018-05-10T03:58:58.486Z,12.10
2018-05-10T04:01:27.021Z,11.87
2018-05-10T04:04:07.251Z,13.03
2018-05-10T04:06:47.569Z,13.70
2018-05-10T04:09:27.672Z,14.00
2018-05-10T04:11:56.183Z,12.60
2018-05-10T04:14:24.697Z,11.90
2018-05-10T04:16:53.214Z,12.53
2018-05-10T04:19:21.692Z,13.30
2018-05-10T04:21:50.196Z,12.43
2018-05-10T04:24:18.709Z,15.57
2018-05-10T04:26:47.238Z,12.20
2018-05-10T04:29:15.696Z,12.93
2018-05-10T04:31:44.213Z,13.97
2018-05-10T04:34:12.681Z,12.87
2018-05-10T04:36:41.184Z,13.03
2018-05-10T04:39:09.688Z,13.10
2018-05-10T04:41:38.200Z,12.30
2018-05-10T04:44:06.671Z,13.20
2018-05-10T04:46:35.165Z,12.83
2018-05-10T04:49:03.688Z,14.37
2018-05-10T04:51:32.144Z,15.37
2018-05-10T04:54:00.660Z,14.77
2018-05-10T04:56:29.169Z,13.80
2018-05-10T04:58:57.652Z,12.93
2018-05-10T05:01:26.130Z,12.73
2018-05-10T05:03:54.609Z,11.73
2018-05-10T05:06:23.124Z,11.80
2018-05-10T05:08:51.654Z,12.63
2018-05-10T05:11:20.133Z,12.87
2018-05-10T05:13:48.601Z,12.57
2018-05-10T05:16:17.097Z,12.43
2018-05-10T05:18:45.581Z,11.83
2018-05-10T05:21:14.101Z,11.57
2018-05-10T05:23:42.564Z,11.40
2018-05-10T05:26:11.041Z,11.17
2018-05-10T05:28:39.717Z,13.27
2018-05-10T05:31:08.248Z,14.43
2018-05-10T05:33:36.745Z,14.80
2018-05-10T05:36:05.213Z,15.63
2018-05-10T05:38:33.702Z,15.80
2018-05-10T05:41:02.446Z,15.73
2018-05-10T05:43:31.090Z,14.37
2018-05-10T05:45:59.521Z,15.97
2018-05-10T05:48:28.049Z,15.43
2018-05-10T05:50:56.529Z,15.47
2018-05-10T05:53:25.037Z,15.27
2018-05-10T05:55:53.549Z,16.03
2018-05-10T05:58:22.065Z,15.57
2018-05-10T06:00:50.614Z,14.33
2018-05-10T06:03:19.100Z,14.27
2018-05-10T06:05:47.580Z,13.97
2018-05-10T06:08:16.096Z,15.03
2018-05-10T06:10:44.577Z,14.03
2018-05-10T06:13:13.088Z,15.63
2018-05-10T06:15:41.819Z,13.73
2018-05-10T06:18:10.276Z,15.13
2018-05-10T06:20:38.736Z,13.93
2018-05-10T06:23:07.259Z,13.70
2018-05-10T06:25:35.728Z,12.93
2018-05-10T06:28:04.283Z,13.27
2018-05-10T06:30:32.772Z,13.93
2018-05-10T06:33:01.302Z,13.20
2018-05-10T06:35:29.817Z,13.53
2018-05-10T06:37:58.322Z,11.47
2018-05-10T06:40:26.876Z,13.70
2018-05-10T06:42:55.629Z,13.33
2018-05-10T06:45:24.105Z,13.13
2018-05-10T06:47:52.689Z,14.40
2018-05-10T06:50:21.180Z,12.50
2018-05-10T06:52:49.702Z,10.80
2018-05-10T06:55:18.278Z,10.73
2018-05-10T06:57:46.835Z,10.80
2018-05-10T07:00:15.382Z,10.93
2018-05-10T07:02:43.909Z,10.80
2018-05-10T07:05:12.380Z,9.33
2018-05-10T07:07:40.910Z,8.40
2018-05-10T07:10:09.365Z,8.13
2018-05-10T07:12:37.874Z,8.63
2018-05-10T07:15:06.364Z,8.10
2018-05-10T07:17:34.861Z,9.77
2018-05-10T07:20:03.392Z,8.43
2018-05-10T07:22:31.894Z,9.53
2018-05-10T07:25:00.430Z,9.20
2018-05-10T07:27:28.948Z,9.77
2018-05-10T07:29:57.452Z,10.07
2018-05-10T07:32:25.941Z,9.87
2018-05-10T07:34:54.441Z,9.97
2018-05-10T07:37:22.931Z,10.03
2018-05-10T07:39:51.476Z,10.63
2018-05-10T07:42:20.005Z,12.23
2018-05-10T07:44:48.584Z,12.77
2018-05-10T07:47:17.129Z,13.33
2018-05-10T07:49:45.641Z,13.07
2018-05-10T07:52:14.121Z,13.77
2018-05-10T07:54:42.636Z,13.57
2018-05-10T07:57:11.105Z,15.97
2018-05-10T07:59:39.596Z,14.37
2018-05-10T08:02:08.078Z,13.33
2018-05-10T08:04:36.622Z,13.97
2018-05-10T08:07:05.095Z,12.87
2018-05-10T08:09:33.601Z,13.93
2018-05-10T08:12:02.112Z,14.57
2018-05-10T08:14:30.579Z,13.60
2018-05-10T08:16:59.167Z,12.17
2018-05-10T08:19:27.625Z,13.30
2018-05-10T08:21:56.154Z,12.80
2018-05-10T08:24:24.657Z,12.47
2018-05-10T08:26:53.109Z,12.43
2018-05-10T08:29:21.625Z,13.17
2018-05-10T08:31:50.117Z,13.63
2018-05-10T08:34:18.656Z,15.03
2018-05-10T08:36:47.284Z,14.47
2018-05-10T08:39:15.748Z,14.03
2018-05-10T08:41:44.333Z,16.60
2018-05-10T08:44:12.800Z,16.70
2018-05-10T08:46:41.341Z,15.47
2018-05-10T08:49:09.920Z,16.33
2018-05-10T08:51:38.578Z,18.03
2018-05-10T08:54:07.048Z,15.57
2018-05-10T08:56:35.570Z,15.73
2018-05-10T08:59:04.083Z,17.40
2018-05-10T09:01:32.589Z,17.93
2018-05-10T09:04:01.088Z,20.07
2018-05-10T09:06:29.611Z,19.73
2018-05-10T09:08:58.090Z,19.20
2018-05-10T09:11:26.616Z,19.27
2018-05-10T09:13:55.092Z,19.53
2018-05-10T09:16:23.608Z,19.00
2018-05-10T09:18:52.094Z,19.87
2018-05-10T09:21:20.573Z,19.27
2018-05-10T09:23:49.064Z,20.27
2018-05-10T09:26:17.530Z,19.77
2018-05-10T09:28:46.094Z,17.67
2018-05-10T09:31:14.616Z,17.33
2018-05-10T09:33:43.135Z,17.27
2018-05-10T09:36:11.661Z,15.83
2018-05-10T09:38:40.184Z,16.03
2018-05-10T09:41:08.678Z,15.20
2018-05-10T09:43:37.161Z,15.67
2018-05-10T09:46:05.672Z,15.33
2018-05-10T09:48:34.232Z,14.33
2018-05-10T09:51:02.741Z,13.67
2018-05-10T09:53:31.224Z,12.97
2018-05-10T09:55:59.749Z,11.97
2018-05-10T09:58:28.236Z,12.70
2018-05-10T10:00:56.771Z,11.43
2018-05-10T10:03:25.262Z,11.87
2018-05-10T10:05:53.799Z,11.10
2018-05-10T10:08:22.294Z,10.97
2018-05-10T10:10:50.839Z,10.10
2018-05-10T10:13:19.356Z,9.77
2018-05-10T10:15:47.858Z,10.53
2018-05-10T10:18:16.370Z,11.70
2018-05-10T10:20:44.853Z,12.87
2018-05-10T10:23:13.328Z,12.23
2018-05-10T10:25:41.884Z,11.10
2018-05-10T10:28:10.409Z,11.10
2018-05-10T10:30:38.976Z,10.50
2018-05-10T10:33:07.460Z,11.70
2018-05-10T10:35:35.941Z,12.23
2018-05-10T10:38:04.545Z,10.50
2018-05-10T10:40:33.029Z,11.47
2018-05-10T10:43:01.560Z,9.60
2018-05-10T10:45:30.130Z,7.87
2018-05-10T10:47:58.550Z,8.60
2018-05-10T10:50:27.265Z,10.10
2018-05-10T10:52:55.863Z,10.50
2018-05-10T10:55:24.349Z,11.07
2018-05-10T10:57:52.830Z,12.90
2018-05-10T11:00:21.336Z,14.70
2018-05-10T11:02:49.871Z,13.70
2018-05-10T11:05:18.395Z,11.87
2018-05-10T11:07:46.869Z,12.70
2018-05-10T11:10:15.398Z,13.43
2018-05-10T11:12:43.881Z,8.97
2018-05-10T11:15:12.429Z,8.90
2018-05-10T11:17:40.890Z,5.33
2018-05-10T11:20:09.397Z,5.53
2018-05-10T11:22:37.935Z,5.80
2018-05-10T11:25:06.474Z,6.77
2018-05-10T11:27:34.977Z,6.20
2018-05-10T11:30:03.512Z,6.53
2018-05-10T11:32:32.060Z,6.70
2018-05-10T11:35:00.529Z,8.03
2018-05-10T11:37:29.077Z,6.13
2018-05-10T11:39:57.553Z,8.50
2018-05-10T11:42:26.028Z,7.67
2018-05-10T11:44:54.540Z,9.00
2018-05-10T11:47:23.016Z,9.83
2018-05-10T11:49:51.545Z,10.23
2018-05-10T11:52:20.063Z,9.30
2018-05-10T11:54:48.566Z,9.10
2018-05-10T11:57:17.077Z,10.53
2018-05-10T11:59:45.608Z,11.03
2018-05-10T12:02:14.135Z,12.20
2018-05-10T12:04:42.610Z,12.43
2018-05-10T12:07:11.108Z,14.30
2018-05-10T12:09:39.580Z,16.47
2018-05-10T12:12:08.097Z,14.20
2018-05-10T12:14:36.569Z,14.67
2018-05-10T12:17:05.085Z,12.10
2018-05-10T12:19:33.572Z,14.17
2018-05-10T12:22:02.064Z,13.33
2018-05-10T12:24:30.526Z,13.87
2018-05-10T12:26:59.028Z,13.83
2018-05-10T12:29:27.572Z,14.47
2018-05-10T12:31:56.085Z,13.20
2018-05-10T12:34:24.589Z,11.87
2018-05-10T12:36:53.102Z,11.07
2018-05-10T12:39:21.576Z,12.90
2018-05-10T12:41:50.070Z,11.53
2018-05-10T12:44:18.541Z,10.37
2018-05-10T12:46:47.041Z,10.27
2018-05-10T12:49:15.500Z,9.37
2018-05-10T12:51:44.045Z,9.27
2018-05-10T12:54:12.549Z,9.10
2018-05-10T12:56:41.064Z,9.17
2018-05-10T12:59:09.631Z,8.80
2018-05-10T13:01:38.206Z,9.23
2018-05-10T13:04:06.682Z,9.67
2018-05-10T13:06:35.177Z,9.77
2018-05-10T13:09:03.760Z,10.50
2018-05-10T13:11:32.268Z,10.30
2018-05-10T13:14:00.780Z,9.93
2018-05-10T13:16:29.272Z,11.00
2018-05-10T13:18:57.786Z,9.80
2018-05-10T13:21:26.297Z,9.87
2018-05-10T13:23:54.817Z,9.13
2018-05-10T13:26:23.296Z,9.17
2018-05-10T13:28:51.894Z,9.10
2018-05-10T13:31:20.324Z,7.90
2018-05-10T13:33:48.782Z,9.00
2018-05-10T13:36:17.266Z,8.20
2018-05-10T13:38:46.668Z,8.80
2018-05-10T13:41:15.191Z,9.40
2018-05-10T13:43:43.644Z,8.70
2018-05-10T13:46:12.169Z,9.40
2018-05-10T13:48:40.676Z,8.30
2018-05-10T13:51:09.195Z,9.33
2018-05-10T13:53:37.679Z,9.27
2018-05-10T13:56:06.180Z,8.70
2018-05-10T13:58:34.622Z,8.83
2018-05-10T14:01:03.167Z,9.30
2018-05-10T14:03:31.620Z,7.60
2018-05-10T14:06:00.113Z,8.90
2018-05-10T14:08:28.627Z,9.33
2018-05-10T14:10:57.096Z,10.87
2018-05-10T14:13:25.612Z,10.30
2018-05-10T14:15:54.089Z,10.40
2018-05-10T14:18:22.663Z,11.40
2018-05-10T14:20:51.184Z,10.90
2018-05-10T14:23:19.659Z,11.20
2018-05-10T14:25:48.177Z,9.60
2018-05-10T14:28:16.658Z,9.00
2018-05-10T14:30:45.194Z,9.60
2018-05-10T14:33:13.692Z,8.93
2018-05-10T14:35:42.224Z,9.60
2018-05-10T14:38:10.721Z,8.43
2018-05-10T14:40:39.213Z,8.43
2018-05-10T14:43:07.696Z,7.90
2018-05-10T14:45:36.174Z,8.03
2018-05-10T14:48:04.677Z,7.57
2018-05-10T14:50:33.133Z,7.80
2018-05-10T14:53:01.603Z,7.27
2018-05-10T14:55:30.119Z,8.33
2018-05-10T14:57:58.617Z,7.90
2018-05-10T15:00:27.117Z,7.50
2018-05-10T15:02:55.580Z,8.17
2018-05-10T15:05:24.042Z,7.57
2018-05-10T15:07:52.544Z,6.77
2018-05-10T15:10:21.079Z,7.67
2018-05-10T15:12:49.537Z,6.97
2018-05-10T15:15:18.067Z,7.20
2018-05-10T15:17:46.592Z,7.67
2018-05-10T15:20:15.037Z,7.37
2018-05-10T15:22:43.787Z,8.17
2018-05-10T15:25:12.358Z,7.90
2018-05-10T15:27:40.809Z,7.87
2018-05-10T15:30:09.305Z,7.70
2018-05-10T15:32:37.801Z,8.03
2018-05-10T15:35:06.253Z,7.87
2018-05-10T15:37:34.759Z,8.13
2018-05-10T15:40:03.253Z,8.23
2018-05-10T15:42:31.768Z,8.40
2018-05-10T15:45:00.236Z,7.23
2018-05-10T15:47:28.692Z,7.00
2018-05-10T15:49:57.277Z,7.53
2018-05-10T15:52:25.734Z,7.23
2018-05-10T15:54:54.220Z,7.33
2018-05-10T15:57:22.677Z,6.27
2018-05-10T15:59:51.176Z,6.10
2018-05-10T16:02:19.660Z,5.87
2018-05-10T16:04:48.108Z,6.43
2018-05-10T16:07:16.627Z,6.50
2018-05-10T16:09:45.075Z,6.90
2018-05-10T16:12:13.560Z,6.23
2018-05-10T16:14:42.081Z,6.73
2018-05-10T16:17:10.532Z,5.77
2018-05-10T16:19:39.041Z,5.80
2018-05-10T16:22:07.484Z,5.80
2018-05-10T16:24:35.944Z,5.83
2018-05-10T16:27:04.441Z,6.30
2018-05-10T16:29:32.932Z,6.30
2018-05-10T16:32:01.460Z,6.17
2018-05-10T16:34:29.969Z,6.27
2018-05-10T16:36:58.429Z,6.37
2018-05-10T16:39:26.959Z,6.47
2018-05-10T16:41:55.463Z,6.57
2018-05-10T16:44:23.944Z,6.53
2018-05-10T16:46:52.445Z,5.90
2018-05-10T16:49:20.913Z,7.40
2018-05-10T16:51:49.397Z,7.63
2018-05-10T16:54:17.863Z,6.70
2018-05-10T16:56:46.368Z,6.73
2018-05-10T16:59:14.832Z,7.43
2018-05-10T17:01:43.340Z,6.80
2018-05-10T17:04:11.813Z,6.67
2018-05-10T17:06:40.279Z,7.37
2018-05-10T17:09:08.764Z,7.10
2018-05-10T17:11:37.225Z,7.07
2018-05-10T17:14:05.728Z,6.73
2018-05-10T17:16:34.237Z,6.60
2018-05-10T17:19:02.704Z,6.57
2018-05-10T17:21:31.256Z,6.40
2018-05-10T17:23:59.729Z,6.10
2018-05-10T17:26:28.188Z,6.63
2018-05-10T17:28:56.682Z,6.27
2018-05-10T17:31:25.176Z,6.10
2018-05-10T17:33:53.621Z,5.80
2018-05-10T17:36:22.112Z,6.03
2018-05-10T17:38:50.623Z,5.70
2018-05-10T17:41:19.085Z,6.13
2018-05-10T17:43:47.577Z,5.93
2018-05-10T17:46:16.055Z,6.13
2018-05-10T17:48:44.548Z,5.70
2018-05-10T17:51:12.985Z,6.00
2018-05-10T17:53:41.485Z,5.50
2018-05-10T17:56:09.964Z,5.57
2018-05-10T17:58:38.419Z,5.60
2018-05-10T18:01:06.970Z,5.43
2018-05-10T18:03:35.444Z,4.60
2018-05-10T18:06:03.908Z,5.27
2018-05-10T18:08:32.436Z,5.17
2018-05-10T18:11:00.935Z,4.57
2018-05-10T18:13:29.405Z,5.10
2018-05-10T18:15:57.904Z,5.30
2018-05-10T18:18:26.360Z,4.50
2018-05-10T18:20:54.867Z,4.70
2018-05-10T18:23:23.347Z,5.20
2018-05-10T18:25:51.861Z,5.00
2018-05-10T18:28:20.364Z,4.57
2018-05-10T18:30:48.820Z,3.93
2018-05-10T18:33:17.303Z,5.27
2018-05-10T18:35:45.788Z,4.57
2018-05-10T18:38:14.226Z,4.67
2018-05-10T18:40:42.718Z,5.20
2018-05-10T18:43:11.233Z,5.23
2018-05-10T18:45:39.693Z,5.63
2018-05-10T18:48:08.174Z,5.43
2018-05-10T18:50:36.657Z,5.53
2018-05-10T18:53:05.164Z,5.90
2018-05-10T18:55:33.605Z,6.20
2018-05-10T18:58:02.042Z,6.07
2018-05-10T19:00:30.528Z,5.27
2018-05-10T19:02:59.009Z,5.40
2018-05-10T19:05:27.514Z,6.00
2018-05-10T19:07:55.961Z,5.97
2018-05-10T19:10:24.403Z,5.50
2018-05-10T19:12:52.885Z,5.50
2018-05-10T19:15:21.384Z,5.83
2018-05-10T19:17:49.848Z,5.43
2018-05-10T19:20:18.337Z,5.40
2018-05-10T19:22:46.761Z,5.70
2018-05-10T19:25:15.234Z,5.60
2018-05-10T19:27:43.717Z,6.03
2018-05-10T19:30:12.141Z,6.23
2018-05-10T19:32:40.612Z,6.33
2018-05-10T19:35:09.064Z,6.13
2018-05-10T19:37:37.533Z,5.87
2018-05-10T19:40:06.009Z,5.83
2018-05-10T19:42:34.512Z,6.17
2018-05-10T19:45:02.973Z,6.37
2018-05-10T19:47:31.410Z,5.80
2018-05-10T19:49:59.880Z,6.07
2018-05-10T19:52:28.364Z,6.33
2018-05-10T19:54:56.816Z,6.33
2018-05-10T19:57:25.292Z,6.30
2018-05-10T19:59:53.733Z,6.13
2018-05-10T20:02:22.212Z,6.23
2018-05-10T20:04:50.653Z,6.20
2018-05-10T20:07:19.151Z,6.47
2018-05-10T20:09:47.689Z,6.33
2018-05-10T20:12:16.142Z,6.90
2018-05-10T20:14:44.636Z,8.63
2018-05-10T20:17:13.124Z,7.43
2018-05-10T20:19:41.593Z,7.40
2018-05-10T20:22:10.041Z,6.60
2018-05-10T20:24:38.536Z,6.43
2018-05-10T20:27:07.005Z,6.80
2018-05-10T20:29:35.445Z,7.00
2018-05-10T20:32:03.940Z,6.47
2018-05-10T20:34:32.381Z,6.50
2018-05-10T20:37:00.856Z,6.40
2018-05-10T20:39:29.297Z,6.80
2018-05-10T20:41:57.789Z,6.53
2018-05-10T20:44:26.236Z,6.97
2018-05-10T20:46:54.713Z,6.40
2018-05-10T20:49:23.155Z,6.37
2018-05-10T20:51:51.642Z,6.83
2018-05-10T20:54:20.116Z,6.77
2018-05-10T20:56:48.585Z,7.43
2018-05-10T20:59:17.060Z,8.00
2018-05-10T21:01:45.517Z,7.03
2018-05-10T21:04:14.071Z,8.00
2018-05-10T21:06:42.479Z,8.23
2018-05-10T21:09:10.976Z,8.40
2018-05-10T21:11:39.447Z,8.10
2018-05-10T21:14:07.884Z,8.07
2018-05-10T21:16:36.368Z,9.60
2018-05-10T21:19:04.820Z,9.70
2018-05-10T21:21:33.420Z,8.70
2018-05-10T21:24:01.905Z,8.90
2018-05-10T21:26:30.356Z,8.87
2018-05-10T21:28:58.898Z,8.87
2018-05-10T21:31:27.396Z,9.20
2018-05-10T21:33:55.921Z,8.40
2018-05-10T21:36:24.377Z,8.00
2018-05-10T21:38:52.887Z,8.90
2018-05-10T21:41:21.341Z,9.07
2018-05-10T21:43:49.828Z,8.60
2018-05-10T21:46:18.292Z,8.03
2018-05-10T21:48:46.780Z,9.27
2018-05-10T21:51:15.302Z,8.93
2018-05-10T21:53:43.777Z,8.33
2018-05-10T21:56:12.533Z,7.97
2018-05-10T21:58:41.031Z,8.00
2018-05-10T22:01:09.505Z,8.10
2018-05-10T22:03:37.952Z,6.70
2018-05-10T22:06:06.464Z,5.70
2018-05-10T22:08:34.953Z,6.23
2018-05-10T22:11:03.420Z,7.17
2018-05-10T22:13:31.897Z,6.90
2018-05-10T22:16:00.448Z,6.50
2018-05-10T22:18:29.003Z,6.07
2018-05-10T22:20:57.459Z,6.20
2018-05-10T22:23:25.924Z,5.33
2018-05-10T22:25:54.444Z,5.90
2018-05-10T22:28:22.892Z,6.13
2018-05-10T22:30:51.461Z,5.63
2018-05-10T22:33:19.951Z,5.60
2018-05-10T22:35:48.428Z,4.90
2018-05-10T22:38:16.965Z,4.80
2018-05-10T22:40:45.416Z,5.20
2018-05-10T22:43:13.904Z,4.70
2018-05-10T22:45:42.375Z,4.83
2018-05-10T22:48:10.857Z,4.47
2018-05-10T22:50:39.341Z,4.53
2018-05-10T22:53:07.814Z,4.73
2018-05-10T22:55:36.312Z,5.00
2018-05-10T22:58:04.801Z,4.37
2018-05-10T23:00:33.240Z,4.17
2018-05-10T23:03:01.756Z,4.33
2018-05-10T23:05:32.261Z,4.40
2018-05-10T23:08:00.728Z,3.97
2018-05-10T23:10:29.236Z,4.07
2018-05-10T23:12:57.692Z,4.33
2018-05-10T23:15:26.144Z,3.93
2018-05-10T23:17:54.633Z,4.30
2018-05-10T23:20:23.072Z,4.60
2018-05-10T23:22:51.573Z,4.07
2018-05-10T23:25:20.060Z,3.80
2018-05-10T23:27:48.581Z,3.97
2018-05-10T23:30:17.076Z,3.60
2018-05-10T23:32:45.584Z,3.77
2018-05-10T23:35:14.070Z,3.60
2018-05-10T23:37:42.517Z,4.13
2018-05-10T23:40:10.968Z,3.93
2018-05-10T23:42:39.476Z,4.20
2018-05-10T23:45:07.977Z,4.50
2018-05-10T23:47:36.458Z,4.30
2018-05-10T23:50:04.918Z,4.20
2018-05-10T23:52:33.414Z,4.60
2018-05-10T23:55:01.897Z,4.57
2018-05-10T23:57:30.373Z,4.67
2018-05-10T23:59:58.872Z,4.50
